Time;durP1;ratioP1;P1;durP2;ratioP2;P2;SDS_P1;SDS_P2;PMS_P1;PMS_P2;Temp;Humidity;BMP_temperature;BMP_pressure;BME280_temperature;BME280_humidity;BME280_pressure;Samples;Min_cycle;Max_cycle;Signal;HPM_P1;HPM_P2
2022/03/03 00:01:37;;;;;;;47.40;24.80;;;;;;;;;;5042093;28;20037;-78
2022/03/03 00:04:03;;;;;;;51.60;26.40;;;;;;;;;;5040718;28;20047;-78
2022/03/03 00:06:29;;;;;;;49.28;24.65;;;;;;;;;;5039459;28;20127;-78
2022/03/03 00:08:55;;;;;;;50.47;25.23;;;;;;;;;;5031439;28;20358;-78
2022/03/03 00:11:21;;;;;;;43.47;24.05;;;;;;;;;;5047648;28;20037;-79
2022/03/03 00:13:47;;;;;;;44.22;23.90;;;;;;;;;;5042868;28;20483;-78
2022/03/03 00:16:13;;;;;;;45.10;25.70;;;;;;;;;;5041755;28;20048;-78
2022/03/03 00:18:39;;;;;;;45.90;24.98;;;;;;;;;;5042341;28;20040;-76
2022/03/03 00:21:05;;;;;;;45.75;24.00;;;;;;;;;;5036916;28;20437;-76
2022/03/03 00:23:32;;;;;;;45.08;23.90;;;;;;;;;;5036586;28;20353;-77
2022/03/03 00:25:58;;;;;;;43.63;24.13;;;;;;;;;;5037032;28;20104;-77
2022/03/03 00:28:24;;;;;;;45.67;24.23;;;;;;;;;;5041133;28;20037;-76
2022/03/03 00:30:50;;;;;;;43.20;23.90;;;;;;;;;;5041861;28;20069;-77
2022/03/03 00:33:16;;;;;;;43.30;24.30;;;;;;;;;;5036931;28;20048;-76
2022/03/03 00:35:42;;;;;;;44.95;23.75;;;;;;;;;;5034797;28;20049;-76
2022/03/03 00:38:08;;;;;;;41.72;24.58;;;;;;;;;;5034930;28;20374;-76
2022/03/03 00:40:34;;;;;;;41.55;23.73;;;;;;;;;;5034550;28;20105;-76
2022/03/03 00:43:00;;;;;;;45.92;25.20;;;;;;;;;;5034601;28;20117;-76
2022/03/03 00:45:27;;;;;;;39.80;23.00;;;;;;;;;;5034041;28;20064;-76
2022/03/03 00:47:53;;;;;;;44.80;24.48;;;;;;;;;;5018066;28;20087;-76
2022/03/03 00:50:19;;;;;;;44.95;24.77;;;;;;;;;;5034214;28;20037;-76
2022/03/03 00:52:45;;;;;;;41.85;24.00;;;;;;;;;;5035816;28;20038;-78
2022/03/03 00:55:11;;;;;;;43.92;24.50;;;;;;;;;;5039517;28;20037;-78
2022/03/03 00:57:37;;;;;;;47.88;25.75;;;;;;;;;;5030991;28;20034;-78
2022/03/03 01:00:04;;;;;;;46.33;26.55;;;;;;;;;;5042641;28;20052;-79
2022/03/03 01:02:30;;;;;;;47.25;26.55;;;;;;;;;;5024256;28;20125;-79
2022/03/03 01:04:56;;;;;;;43.25;26.08;;;;;;;;;;5045277;28;20041;-78
2022/03/03 01:07:22;;;;;;;49.70;26.38;;;;;;;;;;5022889;28;20041;-78
2022/03/03 01:09:48;;;;;;;51.40;25.60;;;;;;;;;;5037410;28;20037;-77
2022/03/03 01:12:14;;;;;;;43.85;25.70;;;;;;;;;;5021449;28;20114;-78
2022/03/03 01:14:40;;;;;;;46.13;25.85;;;;;;;;;;5040548;28;20041;-78
2022/03/03 01:17:06;;;;;;;46.88;26.38;;;;;;;;;;5038729;28;20128;-78
2022/03/03 01:19:32;;;;;;;50.38;27.05;;;;;;;;;;5036957;28;20362;-77
2022/03/03 01:21:58;;;;;;;52.33;28.30;;;;;;;;;;5037219;28;20446;-78
2022/03/03 01:24:24;;;;;;;50.47;27.75;;;;;;;;;;5020716;28;20120;-79
2022/03/03 01:26:50;;;;;;;52.42;28.20;;;;;;;;;;5039033;28;20056;-79
2022/03/03 01:29:16;;;;;;;51.05;27.58;;;;;;;;;;5038217;28;20105;-78
2022/03/03 01:31:42;;;;;;;48.15;28.25;;;;;;;;;;5035483;28;20038;-76
2022/03/03 01:34:08;;;;;;;50.33;28.27;;;;;;;;;;5017655;28;20341;-75
2022/03/03 01:36:34;;;;;;;45.35;26.98;;;;;;;;;;5034255;28;20120;-75
2022/03/03 01:39:00;;;;;;;48.78;27.48;;;;;;;;;;5034040;28;20037;-76
2022/03/03 01:41:26;;;;;;;51.72;27.48;;;;;;;;;;5034163;28;20041;-75
2022/03/03 01:43:52;;;;;;;51.40;28.25;;;;;;;;;;5040182;28;20033;-77
2022/03/03 01:46:18;;;;;;;50.28;27.13;;;;;;;;;;5064752;28;20040;-76
2022/03/03 01:48:44;;;;;;;48.38;28.42;;;;;;;;;;5069128;28;20044;-76
2022/03/03 01:51:10;;;;;;;48.45;27.38;;;;;;;;;;5050393;28;20052;-75
2022/03/03 01:53:37;;;;;;;48.83;28.95;;;;;;;;;;5065800;28;20044;-75
2022/03/03 01:56:03;;;;;;;53.75;29.00;;;;;;;;;;5092643;28;20048;-75
2022/03/03 01:58:29;;;;;;;58.25;29.38;;;;;;;;;;5044406;28;20036;-75
2022/03/03 02:00:55;;;;;;;53.47;28.50;;;;;;;;;;5061003;28;20048;-75
2022/03/03 02:03:21;;;;;;;54.35;29.25;;;;;;;;;;5044513;28;20044;-75
2022/03/03 02:05:47;;;;;;;50.90;28.00;;;;;;;;;;5061172;28;20036;-75
2022/03/03 02:08:13;;;;;;;50.17;27.48;;;;;;;;;;5061562;28;20393;-75
2022/03/03 02:10:39;;;;;;;50.03;27.95;;;;;;;;;;5044851;28;20040;-76
2022/03/03 02:13:06;;;;;;;52.00;28.27;;;;;;;;;;5060417;28;20103;-75
2022/03/03 02:15:32;;;;;;;49.17;28.35;;;;;;;;;;5060644;28;20045;-76
2022/03/03 02:17:58;;;;;;;49.22;26.60;;;;;;;;;;5060815;28;20120;-76
2022/03/03 02:20:24;;;;;;;49.97;28.08;;;;;;;;;;5078178;28;20467;-75
2022/03/03 02:22:50;;;;;;;51.10;28.27;;;;;;;;;;5043597;28;20398;-76
2022/03/03 02:25:17;;;;;;;50.05;26.75;;;;;;;;;;5078897;28;20472;-77
2022/03/03 02:27:43;;;;;;;45.42;26.45;;;;;;;;;;5071789;28;20044;-78
2022/03/03 02:30:09;;;;;;;58.67;28.88;;;;;;;;;;5072206;28;20052;-78
2022/03/03 02:32:35;;;;;;;53.72;28.00;;;;;;;;;;5062176;28;20497;-75
2022/03/03 02:35:01;;;;;;;52.83;28.08;;;;;;;;;;5067121;28;20064;-77
2022/03/03 02:37:34;;;;;;;51.58;29.40;;;;;;;;;;5063857;28;20047;-78
2022/03/03 02:40:00;;;;;;;57.05;28.30;;;;;;;;;;5047207;28;20448;-78
2022/03/03 02:42:26;;;;;;;49.88;27.55;;;;;;;;;;5081350;28;20353;-77
2022/03/03 02:44:52;;;;;;;53.40;27.38;;;;;;;;;;5080719;28;20056;-79
2022/03/03 02:47:18;;;;;;;54.53;28.02;;;;;;;;;;5043980;28;20082;-77
2022/03/03 02:49:44;;;;;;;50.25;28.13;;;;;;;;;;5043971;28;20044;-77
2022/03/03 02:52:10;;;;;;;57.78;28.55;;;;;;;;;;5043437;28;20036;-76
2022/03/03 02:54:36;;;;;;;52.17;26.92;;;;;;;;;;5059976;28;20098;-77
2022/03/03 02:59:47;;;;;;;55.92;28.00;;;;;;;;;;5077553;28;20032;-77
2022/03/03 03:02:13;;;;;;;47.15;27.92;;;;;;;;;;5042917;28;20045;-77
2022/03/03 03:04:39;;;;;;;56.75;28.17;;;;;;;;;;5043037;28;20044;-77
2022/03/03 03:07:05;;;;;;;52.80;27.30;;;;;;;;;;5044044;28;20075;-76
2022/03/03 03:09:31;;;;;;;47.70;27.00;;;;;;;;;;5043315;28;20040;-77
2022/03/03 03:11:57;;;;;;;50.25;27.48;;;;;;;;;;5059611;28;20093;-77
2022/03/03 03:14:25;;;;;;;51.63;27.70;;;;;;;;;;5077331;28;20150;-77
2022/03/03 03:16:51;;;;;;;49.65;26.05;;;;;;;;;;5059655;28;20387;-77
2022/03/03 03:19:17;;;;;;;50.63;28.55;;;;;;;;;;5059155;28;20119;-77
2022/03/03 03:21:43;;;;;;;50.15;25.88;;;;;;;;;;5042780;28;20039;-77
2022/03/03 03:24:09;;;;;;;47.67;26.17;;;;;;;;;;5078620;28;20104;-77
2022/03/03 03:26:35;;;;;;;47.30;26.70;;;;;;;;;;5043619;28;20456;-77
2022/03/03 03:29:01;;;;;;;51.85;27.08;;;;;;;;;;5044302;28;20101;-77
2022/03/03 03:31:27;;;;;;;49.70;26.20;;;;;;;;;;5043456;28;20352;-77
2022/03/03 03:33:55;;;;;;;47.22;26.10;;;;;;;;;;5060061;28;20044;-77
2022/03/03 03:36:21;;;;;;;48.53;25.27;;;;;;;;;;5060966;28;20055;-77
2022/03/03 03:38:47;;;;;;;45.55;25.70;;;;;;;;;;5060714;28;20421;-77
2022/03/03 03:41:13;;;;;;;49.17;26.10;;;;;;;;;;5061693;28;20083;-77
2022/03/03 03:43:39;;;;;;;46.33;26.55;;;;;;;;;;5065820;28;20423;-77
2022/03/03 03:46:05;;;;;;;48.28;26.60;;;;;;;;;;5087268;28;20052;-77
2022/03/03 03:48:31;;;;;;;47.38;26.40;;;;;;;;;;5045269;28;20126;-77
2022/03/03 03:50:57;;;;;;;49.17;27.83;;;;;;;;;;5042155;28;20040;-77
2022/03/03 03:53:23;;;;;;;48.72;26.80;;;;;;;;;;5042115;28;20056;-77
2022/03/03 03:55:50;;;;;;;49.22;27.80;;;;;;;;;;5058869;28;20041;-77
2022/03/03 03:58:16;;;;;;;49.50;26.52;;;;;;;;;;5058966;28;20123;-77
2022/03/03 04:00:42;;;;;;;45.90;26.15;;;;;;;;;;5058858;28;20133;-74
2022/03/03 04:03:08;;;;;;;48.42;27.02;;;;;;;;;;5058471;28;20045;-77
2022/03/03 04:05:34;;;;;;;47.30;27.08;;;;;;;;;;5041959;28;20040;-77
2022/03/03 04:08:00;;;;;;;49.88;26.45;;;;;;;;;;5058206;28;20050;-77
2022/03/03 04:10:28;;;;;;;47.22;27.15;;;;;;;;;;5058090;28;20036;-74
2022/03/03 04:12:54;;;;;;;52.90;26.48;;;;;;;;;;5058623;28;20044;-75
2022/03/03 04:15:20;;;;;;;48.25;26.42;;;;;;;;;;5075604;28;20055;-76
2022/03/03 04:17:46;;;;;;;50.20;26.73;;;;;;;;;;5058717;28;20036;-77
2022/03/03 04:20:12;;;;;;;47.67;26.52;;;;;;;;;;5058067;28;20131;-77
2022/03/03 04:22:38;;;;;;;49.15;27.30;;;;;;;;;;5058862;28;20111;-77
2022/03/03 04:25:05;;;;;;;53.15;28.13;;;;;;;;;;5059586;28;20037;-77
2022/03/03 04:27:31;;;;;;;46.80;25.40;;;;;;;;;;5076746;28;20115;-77
2022/03/03 04:29:57;;;;;;;48.60;27.60;;;;;;;;;;5060270;28;20074;-76
2022/03/03 04:32:23;;;;;;;46.40;26.17;;;;;;;;;;5041869;28;20373;-75
2022/03/03 04:34:48;;;;;;;45.28;25.45;;;;;;;;;;5057833;28;20033;-77
2022/03/03 04:37:15;;;;;;;51.33;26.50;;;;;;;;;;5075879;28;20119;-77
2022/03/03 04:39:41;;;;;;;50.13;27.13;;;;;;;;;;5041444;28;20036;-77
2022/03/03 04:42:07;;;;;;;53.33;27.42;;;;;;;;;;5075914;28;20047;-77
2022/03/03 04:44:33;;;;;;;51.22;27.52;;;;;;;;;;5048214;28;20057;-77
2022/03/03 04:46:59;;;;;;;49.47;27.40;;;;;;;;;;5035301;28;20045;-77
2022/03/03 04:49:25;;;;;;;48.05;26.60;;;;;;;;;;5019482;28;20037;-75
2022/03/03 04:51:51;;;;;;;47.40;27.75;;;;;;;;;;5034441;28;20099;-75
2022/03/03 04:54:18;;;;;;;54.17;28.35;;;;;;;;;;5017651;28;20365;-75
2022/03/03 04:56:44;;;;;;;49.17;26.77;;;;;;;;;;5035268;28;20382;-75
2022/03/03 04:59:10;;;;;;;51.95;28.33;;;;;;;;;;5034117;28;20102;-75
2022/03/03 05:01:36;;;;;;;55.53;28.58;;;;;;;;;;5033900;28;20353;-75
2022/03/03 05:04:02;;;;;;;52.03;26.20;;;;;;;;;;5034362;28;20045;-75
2022/03/03 05:06:28;;;;;;;49.03;27.17;;;;;;;;;;5017385;28;20052;-75
2022/03/03 05:08:54;;;;;;;51.50;27.48;;;;;;;;;;5033778;28;20462;-75
2022/03/03 05:11:20;;;;;;;51.42;27.95;;;;;;;;;;5017606;28;20098;-75
2022/03/03 05:13:46;;;;;;;55.88;28.10;;;;;;;;;;5017492;28;20045;-75
2022/03/03 05:16:12;;;;;;;55.80;28.40;;;;;;;;;;5017594;28;20041;-75
2022/03/03 05:18:38;;;;;;;49.50;26.58;;;;;;;;;;5017622;28;20038;-76
2022/03/03 05:21:05;;;;;;;49.65;26.92;;;;;;;;;;5017558;28;20343;-75
2022/03/03 05:23:31;;;;;;;54.03;26.92;;;;;;;;;;5035278;28;20456;-82
2022/03/03 05:25:57;;;;;;;55.72;26.25;;;;;;;;;;5023902;28;20138;-82
2022/03/03 05:28:23;;;;;;;57.40;28.02;;;;;;;;;;5039621;28;20063;-81
2022/03/03 05:30:49;;;;;;;50.25;25.80;;;;;;;;;;5022673;28;20420;-82
2022/03/03 05:33:15;;;;;;;49.50;26.27;;;;;;;;;;5041991;28;20045;-82
2022/03/03 05:35:41;;;;;;;50.67;26.67;;;;;;;;;;5023278;28;20189;-81
2022/03/03 05:38:07;;;;;;;53.40;26.95;;;;;;;;;;5042963;28;20037;-82
2022/03/03 05:40:33;;;;;;;55.65;27.98;;;;;;;;;;5045404;28;20045;-81
2022/03/03 05:42:59;;;;;;;55.80;28.40;;;;;;;;;;5026515;28;20037;-82
2022/03/03 05:45:26;;;;;;;57.53;28.75;;;;;;;;;;5058361;28;20132;-81
2022/03/03 05:47:52;;;;;;;58.80;29.83;;;;;;;;;;5046031;28;20491;-81
2022/03/03 05:50:18;;;;;;;60.05;29.88;;;;;;;;;;5044250;28;20120;-82
2022/03/03 05:52:44;;;;;;;55.95;28.20;;;;;;;;;;5060454;28;20080;-82
2022/03/03 05:55:10;;;;;;;58.78;28.05;;;;;;;;;;5044256;28;20467;-82
2022/03/03 05:57:38;;;;;;;59.30;29.45;;;;;;;;;;5044789;28;20036;-82
2022/03/03 06:00:12;;;;;;;59.63;29.30;;;;;;;;;;5046684;28;20086;-82
2022/03/03 06:02:38;;;;;;;62.50;30.58;;;;;;;;;;5068112;28;20085;-83
2022/03/03 06:05:04;;;;;;;66.40;30.13;;;;;;;;;;5045502;28;20063;-82
2022/03/03 06:07:30;;;;;;;59.90;29.92;;;;;;;;;;5063335;28;20071;-83
2022/03/03 06:09:56;;;;;;;55.38;30.33;;;;;;;;;;5063154;28;20501;-83
2022/03/03 06:12:41;;;;;;;55.50;29.67;;;;;;;;;;5045488;28;20036;-82
2022/03/03 06:15:07;;;;;;;56.15;27.95;;;;;;;;;;5078499;28;20044;-82
2022/03/03 06:17:34;;;;;;;58.67;29.65;;;;;;;;;;5061757;28;20443;-84
2022/03/03 06:20:00;;;;;;;55.25;29.40;;;;;;;;;;5043774;28;20037;-83
2022/03/03 06:22:26;;;;;;;55.83;28.20;;;;;;;;;;5061570;28;20042;-83
2022/03/03 06:24:53;;;;;;;56.55;29.13;;;;;;;;;;5045981;28;20090;-83
2022/03/03 06:27:19;;;;;;;61.00;30.35;;;;;;;;;;5050241;28;20471;-83
2022/03/03 06:29:45;;;;;;;51.03;27.67;;;;;;;;;;5066614;28;20102;-83
2022/03/03 06:32:11;;;;;;;54.47;28.35;;;;;;;;;;5051602;28;20036;-82
2022/03/03 06:34:37;;;;;;;53.65;27.08;;;;;;;;;;5065259;28;20037;-81
2022/03/03 06:37:03;;;;;;;51.22;27.42;;;;;;;;;;5045835;28;20045;-82
2022/03/03 06:39:29;;;;;;;48.75;26.73;;;;;;;;;;5063747;28;20033;-82
2022/03/03 06:41:55;;;;;;;59.33;30.52;;;;;;;;;;5064116;28;20464;-81
2022/03/03 06:44:21;;;;;;;55.20;28.50;;;;;;;;;;5066944;28;20059;-81
2022/03/03 06:46:47;;;;;;;60.45;31.67;;;;;;;;;;5066993;28;20040;-81
2022/03/03 06:49:13;;;;;;;54.65;28.70;;;;;;;;;;5051122;28;20059;-81
2022/03/03 06:51:43;;;;;;;54.72;30.65;;;;;;;;;;5066585;28;20037;-81
2022/03/03 06:54:13;;;;;;;59.55;30.70;;;;;;;;;;5050994;28;20089;-82
2022/03/03 06:56:56;;;;;;;59.72;29.90;;;;;;;;;;5049996;28;20051;-83
2022/03/03 06:59:26;;;;;;;56.55;29.50;;;;;;;;;;5059916;28;20036;-83
2022/03/03 07:01:52;;;;;;;56.83;28.58;;;;;;;;;;5067440;28;20119;-82
2022/03/03 07:04:19;;;;;;;60.05;29.95;;;;;;;;;;5066505;28;20040;-82
2022/03/03 07:06:45;;;;;;;55.83;29.30;;;;;;;;;;5081710;28;20036;-82
2022/03/03 07:09:11;;;;;;;55.95;29.17;;;;;;;;;;5065052;28;20111;-81
2022/03/03 07:11:38;;;;;;;54.25;28.65;;;;;;;;;;5065378;28;20028;-83
2022/03/03 07:14:04;;;;;;;53.42;29.58;;;;;;;;;;5064798;28;20048;-81
2022/03/03 07:16:30;;;;;;;54.35;29.08;;;;;;;;;;5081257;28;20119;-82
2022/03/03 07:18:56;;;;;;;61.03;29.85;;;;;;;;;;5080967;28;20048;-83
2022/03/03 07:21:41;;;;;;;47.60;27.65;;;;;;;;;;5075843;28;20036;-82
2022/03/03 07:24:13;;;;;;;51.95;28.25;;;;;;;;;;5071011;28;20040;-82
2022/03/03 07:26:39;;;;;;;54.00;28.38;;;;;;;;;;5068336;28;20040;-84
2022/03/03 07:29:05;;;;;;;52.22;28.13;;;;;;;;;;5052171;28;20496;-84
2022/03/03 07:31:31;;;;;;;51.08;26.40;;;;;;;;;;5069322;28;20096;-83
2022/03/03 07:34:00;;;;;;;55.75;27.23;;;;;;;;;;5052073;28;20068;-83
2022/03/03 07:36:28;;;;;;;53.72;27.02;;;;;;;;;;5068994;28;20056;-84
2022/03/03 07:39:11;;;;;;;50.83;25.75;;;;;;;;;;5050941;28;20037;-81
2022/03/03 07:41:37;;;;;;;49.22;25.88;;;;;;;;;;5084977;28;20094;-85
2022/03/03 07:44:03;;;;;;;53.17;26.73;;;;;;;;;;5050162;28;20045;-83
2022/03/03 07:46:29;;;;;;;49.70;25.92;;;;;;;;;;5050010;28;20044;-84
2022/03/03 07:48:56;;;;;;;47.63;27.23;;;;;;;;;;5067455;28;20437;-82
2022/03/03 07:51:23;;;;;;;45.90;26.58;;;;;;;;;;5051339;28;20040;-82
2022/03/03 07:53:49;;;;;;;47.13;26.38;;;;;;;;;;5049979;28;20463;-83
2022/03/03 07:56:25;;;;;;;50.63;25.38;;;;;;;;;;5050822;28;20440;-82
2022/03/03 07:58:52;;;;;;;48.20;25.48;;;;;;;;;;5051331;28;20051;-82
2022/03/03 08:01:18;;;;;;;47.92;25.48;;;;;;;;;;5050457;28;20066;-81
2022/03/03 08:03:45;;;;;;;51.80;26.05;;;;;;;;;;5049888;28;20036;-82
2022/03/03 08:06:11;;;;;;;50.38;26.23;;;;;;;;;;5066253;28;20368;-83
2022/03/03 08:08:49;;;;;;;45.80;25.17;;;;;;;;;;5051055;28;20051;-82
2022/03/03 08:11:16;;;;;;;48.47;24.33;;;;;;;;;;5067577;28;20399;-82
2022/03/03 08:13:42;;;;;;;42.58;24.23;;;;;;;;;;5056697;28;20082;-83
2022/03/03 08:16:08;;;;;;;44.53;23.85;;;;;;;;;;5054297;28;20040;-82
2022/03/03 08:18:38;;;;;;;45.45;24.50;;;;;;;;;;5060081;28;20032;-81
2022/03/03 08:21:05;;;;;;;45.50;23.55;;;;;;;;;;5053594;28;20068;-82
2022/03/03 08:23:33;;;;;;;45.03;22.48;;;;;;;;;;5066876;28;20043;-83
2022/03/03 08:25:59;;;;;;;40.15;22.45;;;;;;;;;;5048445;28;20051;-85
2022/03/03 08:28:25;;;;;;;45.28;22.63;;;;;;;;;;5048615;28;20041;-84
2022/03/03 08:30:52;;;;;;;45.10;23.02;;;;;;;;;;5049164;28;20044;-85
2022/03/03 08:33:27;;;;;;;38.65;21.98;;;;;;;;;;5065260;28;20092;-84
2022/03/03 08:35:56;;;;;;;39.38;21.98;;;;;;;;;;5065156;28;20036;-84
2022/03/03 08:38:25;;;;;;;48.50;24.15;;;;;;;;;;5048775;28;20037;-84
2022/03/03 08:40:51;;;;;;;40.75;22.63;;;;;;;;;;5067461;28;20044;-85
2022/03/03 08:43:20;;;;;;;45.15;23.17;;;;;;;;;;5068262;28;20051;-85
2022/03/03 08:45:48;;;;;;;39.17;21.80;;;;;;;;;;5067947;28;20095;-85
2022/03/03 08:48:14;;;;;;;43.38;23.40;;;;;;;;;;5068444;28;20044;-84
2022/03/03 08:50:42;;;;;;;40.35;22.25;;;;;;;;;;5054897;28;20040;-85
2022/03/03 08:53:08;;;;;;;48.33;22.98;;;;;;;;;;5057064;28;20036;-84
2022/03/03 08:55:34;;;;;;;40.05;21.92;;;;;;;;;;5070201;28;20036;-84
2022/03/03 08:58:00;;;;;;;36.67;20.92;;;;;;;;;;5050385;28;20036;-85
2022/03/03 09:00:27;;;;;;;37.47;20.85;;;;;;;;;;5050408;28;20050;-85
2022/03/03 09:02:53;;;;;;;35.03;18.77;;;;;;;;;;5049514;28;20482;-84
2022/03/03 09:05:20;;;;;;;34.75;18.90;;;;;;;;;;5083162;28;20036;-84
2022/03/03 09:07:47;;;;;;;36.35;18.58;;;;;;;;;;5049203;28;20460;-84
2022/03/03 09:10:13;;;;;;;36.17;19.15;;;;;;;;;;5050101;28;20364;-83
2022/03/03 09:12:39;;;;;;;34.70;18.73;;;;;;;;;;5064912;28;20044;-84
2022/03/03 09:15:06;;;;;;;40.80;18.80;;;;;;;;;;5047734;28;20060;-84
2022/03/03 09:17:33;;;;;;;31.70;18.25;;;;;;;;;;5052174;28;20067;-84
2022/03/03 09:20:00;;;;;;;33.97;19.02;;;;;;;;;;5070620;28;20470;-84
2022/03/03 09:22:27;;;;;;;32.95;19.15;;;;;;;;;;5048519;28;20033;-83
2022/03/03 09:24:54;;;;;;;35.80;19.15;;;;;;;;;;5047720;28;20082;-84
2022/03/03 09:27:20;;;;;;;37.22;19.73;;;;;;;;;;5082553;28;20036;-83
2022/03/03 09:29:49;;;;;;;34.95;18.95;;;;;;;;;;5064784;28;20097;-83
2022/03/03 09:32:15;;;;;;;30.15;17.55;;;;;;;;;;5047758;28;20040;-83
2022/03/03 09:34:45;;;;;;;32.00;18.52;;;;;;;;;;5065249;28;20115;-83
2022/03/03 09:37:11;;;;;;;34.05;17.98;;;;;;;;;;5049014;28;20464;-82
2022/03/03 09:39:37;;;;;;;31.98;18.08;;;;;;;;;;5064962;28;20055;-83
2022/03/03 09:42:04;;;;;;;35.33;18.33;;;;;;;;;;5048771;28;20040;-84
2022/03/03 09:44:30;;;;;;;31.90;18.58;;;;;;;;;;5050318;28;20063;-83
2022/03/03 09:46:56;;;;;;;33.58;18.02;;;;;;;;;;5048435;28;20036;-82
2022/03/03 09:49:23;;;;;;;27.90;17.15;;;;;;;;;;5050145;28;20036;-83
2022/03/03 09:51:50;;;;;;;27.08;16.38;;;;;;;;;;5051243;28;20037;-82
2022/03/03 09:54:16;;;;;;;31.17;16.92;;;;;;;;;;5051202;28;20044;-81
2022/03/03 09:56:42;;;;;;;29.88;16.40;;;;;;;;;;5066669;28;20547;-83
2022/03/03 09:59:08;;;;;;;29.42;15.55;;;;;;;;;;5073531;28;20028;-81
2022/03/03 10:01:34;;;;;;;26.45;16.10;;;;;;;;;;5059660;28;20037;-82
2022/03/03 10:04:15;;;;;;;27.67;17.00;;;;;;;;;;5059421;28;20062;-82
2022/03/03 10:06:44;;;;;;;30.42;17.27;;;;;;;;;;5094418;28;20036;-80
2022/03/03 10:09:10;;;;;;;27.98;16.25;;;;;;;;;;5064783;28;20420;-80
2022/03/03 10:11:48;;;;;;;30.83;16.40;;;;;;;;;;5045390;28;20071;-80
2022/03/03 10:14:15;;;;;;;32.03;18.15;;;;;;;;;;5082314;28;20040;-81
2022/03/03 10:16:47;;;;;;;28.17;16.50;;;;;;;;;;5064121;28;20052;-81
2022/03/03 10:19:14;;;;;;;30.95;16.75;;;;;;;;;;5068245;28;20044;-81
2022/03/03 10:21:41;;;;;;;32.22;15.63;;;;;;;;;;5050945;28;20040;-81
2022/03/03 10:24:24;;;;;;;29.17;15.02;;;;;;;;;;5069352;28;20037;-79
2022/03/03 10:27:07;;;;;;;27.90;15.23;;;;;;;;;;5067448;28;20036;-80
2022/03/03 10:29:33;;;;;;;;;;;;;;;;;;5049064;28;20427;-81
2022/03/03 10:32:00;;;;;;;28.63;14.50;;;;;;;;;;5065214;28;19908;-81
2022/03/03 10:34:27;;;;;;;31.17;14.45;;;;;;;;;;5049559;28;20060;-81
2022/03/03 10:37:00;;;;;;;21.85;12.55;;;;;;;;;;5066163;28;20032;-81
2022/03/03 10:39:39;;;;;;;20.75;12.98;;;;;;;;;;5064773;28;20123;-81
2022/03/03 10:42:12;;;;;;;23.85;12.60;;;;;;;;;;5064804;28;20062;-81
2022/03/03 10:44:38;;;;;;;23.23;11.95;;;;;;;;;;5056824;28;20048;-80
2022/03/03 10:47:06;;;;;;;23.83;11.88;;;;;;;;;;5064668;28;20044;-81
2022/03/03 10:49:32;;;;;;;20.23;12.20;;;;;;;;;;5080059;28;20048;-81
2022/03/03 10:52:11;;;;;;;23.55;12.82;;;;;;;;;;5065162;28;20031;-81
2022/03/03 10:54:49;;;;;;;21.00;12.00;;;;;;;;;;5079844;28;20044;-80
2022/03/03 10:57:34;;;;;;;17.10;10.70;;;;;;;;;;5082999;28;20057;-80
2022/03/03 11:00:01;;;;;;;20.02;11.70;;;;;;;;;;5081219;28;20037;-80
2022/03/03 11:02:28;;;;;;;19.73;11.63;;;;;;;;;;5061215;28;20041;-80
2022/03/03 11:04:54;;;;;;;18.60;11.55;;;;;;;;;;5044958;28;20085;-80
2022/03/03 11:07:21;;;;;;;20.30;11.02;;;;;;;;;;5046913;28;20095;-80
2022/03/03 11:09:48;;;;;;;20.00;10.90;;;;;;;;;;5064328;28;20342;-81
2022/03/03 11:12:14;;;;;;;22.13;10.80;;;;;;;;;;5051034;28;20040;-81
2022/03/03 11:14:40;;;;;;;16.85;9.77;;;;;;;;;;5070014;28;20036;-81
2022/03/03 11:17:07;;;;;;;18.05;10.88;;;;;;;;;;5047891;28;20479;-80
2022/03/03 11:19:33;;;;;;;18.00;10.10;;;;;;;;;;5064737;28;20456;-82
2022/03/03 11:21:59;;;;;;;17.27;10.43;;;;;;;;;;5048969;28;20418;-81
2022/03/03 11:24:25;;;;;;;17.67;10.32;;;;;;;;;;5064418;28;20040;-81
2022/03/03 11:26:51;;;;;;;16.88;10.00;;;;;;;;;;5064134;28;20074;-81
2022/03/03 11:29:17;;;;;;;17.23;10.60;;;;;;;;;;5048289;28;20040;-80
2022/03/03 11:31:44;;;;;;;17.35;11.05;;;;;;;;;;5055359;28;20059;-82
2022/03/03 11:34:20;;;;;;;16.40;10.10;;;;;;;;;;5064510;28;20045;-81
2022/03/03 11:36:46;;;;;;;16.58;10.05;;;;;;;;;;5063571;28;20128;-80
2022/03/03 11:39:32;;;;;;;17.30;10.30;;;;;;;;;;5063205;28;20072;-81
2022/03/03 11:41:58;;;;;;;17.23;10.07;;;;;;;;;;5080344;28;20075;-80
2022/03/03 11:44:31;;;;;;;19.55;10.63;;;;;;;;;;5045860;28;20060;-80
2022/03/03 11:46:57;;;;;;;15.95;9.93;;;;;;;;;;5045788;28;20115;-81
2022/03/03 11:49:24;;;;;;;15.65;9.85;;;;;;;;;;5062246;28;20079;-81
2022/03/03 11:51:50;;;;;;;17.25;9.57;;;;;;;;;;5062218;28;20040;-81
2022/03/03 11:54:17;;;;;;;17.65;10.40;;;;;;;;;;5045274;28;20040;-81
2022/03/03 11:57:02;;;;;;;18.85;9.90;;;;;;;;;;5062170;28;20508;-80
2022/03/03 11:59:34;;;;;;;20.67;10.13;;;;;;;;;;5062757;28;20306;-80
2022/03/03 12:02:00;;;;;;;16.83;9.80;;;;;;;;;;5062851;28;20039;-80
2022/03/03 12:04:27;;;;;;;20.73;10.65;;;;;;;;;;5062125;28;20056;-80
2022/03/03 12:06:54;;;;;;;18.15;9.88;;;;;;;;;;5062530;28;20068;-80
2022/03/03 12:09:20;;;;;;;16.13;10.38;;;;;;;;;;5061357;28;20040;-81
2022/03/03 12:11:46;;;;;;;19.55;11.40;;;;;;;;;;5062332;28;20378;-80
2022/03/03 12:14:32;;;;;;;22.63;12.45;;;;;;;;;;5063137;28;20072;-80
2022/03/03 12:17:17;;;;;;;21.55;12.80;;;;;;;;;;5056314;28;20087;-79
2022/03/03 12:19:43;;;;;;;22.15;12.82;;;;;;;;;;5091654;28;20451;-80
2022/03/03 12:22:09;;;;;;;19.98;12.27;;;;;;;;;;5049313;28;20043;-80
2022/03/03 12:24:38;;;;;;;21.83;13.13;;;;;;;;;;5063760;28;20033;-80
2022/03/03 12:27:09;;;;;;;20.30;13.07;;;;;;;;;;5063092;28;20071;-80
2022/03/03 12:29:38;;;;;;;21.90;13.73;;;;;;;;;;5067830;28;20125;-80
2022/03/03 12:32:23;;;;;;;23.75;13.48;;;;;;;;;;5084292;28;20063;-79
2022/03/03 12:34:49;;;;;;;23.08;13.02;;;;;;;;;;5085705;28;20037;-79
2022/03/03 12:37:15;;;;;;;20.90;13.05;;;;;;;;;;5070142;28;20048;-80
2022/03/03 12:40:03;;;;;;;22.67;13.05;;;;;;;;;;5070565;28;20044;-80
2022/03/03 12:42:31;;;;;;;22.65;12.98;;;;;;;;;;5084589;28;20040;-80
2022/03/03 12:44:57;;;;;;;23.95;13.75;;;;;;;;;;5050715;28;20126;-80
2022/03/03 12:47:36;;;;;;;21.30;13.45;;;;;;;;;;5038597;28;20050;-80
2022/03/03 12:50:09;;;;;;;24.52;13.73;;;;;;;;;;5022039;28;20359;-80
2022/03/03 12:52:35;;;;;;;22.50;13.60;;;;;;;;;;5038744;28;20041;-79
2022/03/03 12:55:01;;;;;;;22.70;13.18;;;;;;;;;;5037886;28;20385;-79
2022/03/03 12:57:31;;;;;;;21.88;12.30;;;;;;;;;;5022166;28;20079;-79
2022/03/03 12:59:58;;;;;;;20.23;12.52;;;;;;;;;;5021677;28;20372;-79
2022/03/03 13:02:24;;;;;;;24.85;12.70;;;;;;;;;;5039358;28;20531;-79
2022/03/03 13:04:50;;;;;;;19.92;12.80;;;;;;;;;;5038933;28;20042;-79
2022/03/03 13:07:17;;;;;;;20.73;13.15;;;;;;;;;;5038738;28;20045;-79
2022/03/03 13:09:56;;;;;;;20.80;12.80;;;;;;;;;;5038888;28;20121;-79
2022/03/03 13:12:22;;;;;;;18.20;12.82;;;;;;;;;;5027848;28;20063;-78
2022/03/03 13:15:00;;;;;;;21.52;13.90;;;;;;;;;;5027876;28;20049;-78
2022/03/03 13:17:27;;;;;;;21.83;12.77;;;;;;;;;;5044854;28;20381;-78
2022/03/03 13:19:54;;;;;;;22.70;12.95;;;;;;;;;;5041666;28;20483;-79
2022/03/03 13:22:20;;;;;;;23.50;13.75;;;;;;;;;;5022621;28;20060;-79
2022/03/03 13:24:46;;;;;;;24.95;14.02;;;;;;;;;;5039969;28;20045;-79
2022/03/03 13:27:13;;;;;;;21.63;13.98;;;;;;;;;;5022201;28;20045;-80
2022/03/03 13:29:39;;;;;;;23.42;13.65;;;;;;;;;;5024038;28;20056;-80
2022/03/03 13:32:12;;;;;;;19.45;13.43;;;;;;;;;;5048366;28;20061;-80
2022/03/03 13:34:39;;;;;;;22.17;13.60;;;;;;;;;;5039463;28;20093;-80
2022/03/03 13:37:13;;;;;;;20.40;13.93;;;;;;;;;;5034355;28;20073;-80
2022/03/03 13:39:39;;;;;;;20.25;13.88;;;;;;;;;;5039221;28;20442;-80
2022/03/03 13:42:20;;;;;;;22.77;14.60;;;;;;;;;;5025998;28;20041;-80
2022/03/03 13:44:53;;;;;;;24.70;14.48;;;;;;;;;;5058793;28;20056;-81
2022/03/03 13:47:23;;;;;;;21.95;14.00;;;;;;;;;;5080659;28;20043;-81
2022/03/03 13:49:52;;;;;;;23.33;13.68;;;;;;;;;;5062005;28;20032;-80
2022/03/03 13:52:19;;;;;;;19.73;13.77;;;;;;;;;;5063315;28;20122;-81
2022/03/03 13:54:46;;;;;;;24.15;13.88;;;;;;;;;;5084330;28;20052;-81
2022/03/03 13:57:31;;;;;;;23.15;13.27;;;;;;;;;;5085740;28;20067;-81
2022/03/03 13:59:57;;;;;;;27.08;14.55;;;;;;;;;;5068228;28;20033;-82
2022/03/03 14:02:25;;;;;;;23.92;14.85;;;;;;;;;;5056972;28;20040;-81
2022/03/03 14:05:01;;;;;;;24.83;15.15;;;;;;;;;;5054157;28;20364;-82
2022/03/03 14:07:28;;;;;;;24.83;15.23;;;;;;;;;;5051202;28;20041;-83
2022/03/03 14:09:58;;;;;;;27.50;15.23;;;;;;;;;;5050733;28;20455;-83
2022/03/03 14:12:24;;;;;;;24.80;16.10;;;;;;;;;;5066651;28;20040;-82
2022/03/03 14:14:50;;;;;;;26.02;15.60;;;;;;;;;;5067494;28;20059;-82
2022/03/03 14:17:16;;;;;;;23.73;14.88;;;;;;;;;;5065409;28;20102;-82
2022/03/03 14:19:43;;;;;;;24.02;14.65;;;;;;;;;;5066232;28;20060;-82
2022/03/03 14:22:09;;;;;;;21.08;13.82;;;;;;;;;;5048954;28;20042;-82
2022/03/03 14:24:38;;;;;;;19.27;13.70;;;;;;;;;;5048677;28;20036;-82